This demonstration page uses our WeatherBlox Daily Observations layout. Learn more.

39.92423, -83.80882

Hourly Observations for July 20, 2016

Temp ( °F °C ) Dew Point ( °F °C ) Humidity (%) Winds ( mph kmh ) Pressure ( in mb ) Visibility ( mi km ) Precip ( " mm )
1:56 am 01:56 Clear 65 18.3 63 17.2 93 93 Calm 30.22 1024 10 16.0934 0 0
2:56 am 02:56 Clear 64 17.8 61 16.1 90 90 Calm 30.23 1024 10 16.0934 0 0
4:56 am 04:56 Clear 63 17.2 61 16.1 93 93 ENE 5 7 30.23 1024 10 16.0934 0 0
5:56 am 05:56 Clear 62 16.7 60 15.6 93 93 E 5 7 30.23 1024 10 16.0934 0 0
6:56 am 06:56 Sunny 62 16.7 60 15.6 93 93 E 3 6 30.24 1024 9 14.48406 0 0
7:56 am 07:56 Sunny 67 19.4 63 17.2 87 87 Calm N/A 10 16.0934 0 0
8:56 am 08:56 Sunny 71 21.7 64 17.8 79 79 E 6 9 30.28 1025 10 16.0934 0 0
9:56 am 09:56 Sunny 76 24.4 65 18.3 69 69 SE 8 13 30.26 1025 10 16.0934 0 0
10:56 am 10:56 Sunny 79 26.1 67 19.4 67 67 SSE 6 9 30.25 1024 10 16.0934 0 0
11:56 am 11:56 Sunny 82 27.8 67 19.4 60 60 S 6 9 30.24 1024 10 16.0934 0 0
12:56 pm 12:56 Sunny 83 28.3 65 18.3 55 55 VRB 3 6 N/A 10 16.0934 0 0
1:56 pm 13:56 Sunny 84 28.9 66 18.9 55 55 VRB 3 6 30.23 1024 10 16.0934 0 0
3:56 pm 15:56 Mostly Sunny 87 30.6 64 17.8 46 46 Calm 30.2 1023 10 16.0934 0 0
5:56 pm 17:56 Sunny 85 29.4 66 18.9 53 53 Calm 30.18 1022 10 16.0934 0 0
6:56 pm 18:56 Sunny 83 28.3 68 20 61 61 SE 7 11 30.17 1022 10 16.0934 0 0
7:56 pm 19:56 Sunny 80 26.7 70 21.1 71 71 SSE 5 7 30.16 1022 10 16.0934 0 0
8:56 pm 20:56 Sunny 78 25.6 67 19.4 69 69 S 5 7 30.16 1022 10 16.0934 0 0
9:56 pm 21:56 Clear 77 25 65 18.3 66 66 S 6 9 30.17 1022 10 16.0934 0 0
10:56 pm 22:56 Clear 74 23.3 65 18.3 74 74 S 5 7 30.18 1022 10 16.0934 0 0
11:56 pm 23:56 Clear 69 20.6 65 18.3 87 87 Calm 30.19 1022 10 16.0934 0 0

Powered by AerisWeather